createdAt,value
2018-07-31T00:00:12.652Z,0
2018-07-31T00:01:28.520Z,0
2018-07-31T00:02:44.428Z,0
2018-07-31T00:04:00.356Z,0
2018-07-31T00:05:16.227Z,0
2018-07-31T00:06:32.139Z,0
2018-07-31T00:07:48.031Z,0
2018-07-31T00:09:03.921Z,0
2018-07-31T00:10:19.795Z,0
2018-07-31T00:11:35.645Z,0
2018-07-31T00:12:51.503Z,0
2018-07-31T00:14:07.382Z,0
2018-07-31T00:15:23.252Z,0
2018-07-31T00:16:39.123Z,0
2018-07-31T00:17:54.985Z,0
2018-07-31T00:19:10.922Z,0
2018-07-31T00:20:26.820Z,0
2018-07-31T00:21:42.760Z,0
2018-07-31T00:22:58.675Z,0
2018-07-31T00:24:14.536Z,0
2018-07-31T00:25:30.424Z,0
2018-07-31T00:26:46.282Z,0
2018-07-31T00:28:02.169Z,0
2018-07-31T00:29:18.051Z,0
2018-07-31T00:30:34.159Z,0
2018-07-31T00:31:50.039Z,0
2018-07-31T00:33:05.918Z,0
2018-07-31T00:34:21.840Z,0
2018-07-31T00:35:37.725Z,0
2018-07-31T00:36:53.586Z,0
2018-07-31T00:38:09.454Z,0
2018-07-31T00:39:25.352Z,0
2018-07-31T00:40:41.201Z,0
2018-07-31T00:41:57.081Z,0
2018-07-31T00:43:12.955Z,0
2018-07-31T00:44:28.849Z,0
2018-07-31T00:45:44.747Z,0
2018-07-31T00:49:57.449Z,0
2018-07-31T00:51:13.398Z,0
2018-07-31T00:54:11.101Z,0
2018-07-31T00:55:26.966Z,0
2018-07-31T00:56:42.859Z,0
2018-07-31T00:57:58.749Z,0
2018-07-31T00:59:14.609Z,0
2018-07-31T01:00:30.491Z,0
2018-07-31T01:01:46.339Z,0
2018-07-31T01:03:02.275Z,0
2018-07-31T01:04:18.301Z,0
2018-07-31T01:05:34.204Z,0
2018-07-31T01:06:50.074Z,0
2018-07-31T01:08:05.987Z,0
2018-07-31T01:09:21.848Z,0
2018-07-31T01:10:37.766Z,0
2018-07-31T01:11:53.627Z,0
2018-07-31T01:13:09.536Z,0
2018-07-31T01:14:25.379Z,0
2018-07-31T01:15:41.264Z,0
2018-07-31T01:16:57.130Z,0
2018-07-31T01:18:13.029Z,0
2018-07-31T01:19:28.921Z,0
2018-07-31T01:20:44.815Z,0
2018-07-31T01:22:00.690Z,0
2018-07-31T01:23:16.606Z,0
2018-07-31T01:24:32.529Z,0
2018-07-31T01:25:48.412Z,0
2018-07-31T01:27:04.241Z,0
2018-07-31T01:28:20.089Z,0
2018-07-31T01:29:35.996Z,0
2018-07-31T01:30:51.832Z,0
2018-07-31T01:32:07.691Z,0
2018-07-31T01:33:23.706Z,0
2018-07-31T01:34:39.609Z,0
2018-07-31T01:35:55.443Z,0
2018-07-31T01:37:11.316Z,0
2018-07-31T01:38:27.164Z,0
2018-07-31T01:39:43.047Z,0
2018-07-31T01:40:58.893Z,0
2018-07-31T01:42:14.758Z,0
2018-07-31T01:43:30.658Z,0
2018-07-31T01:44:46.538Z,0
2018-07-31T01:46:02.507Z,0
2018-07-31T01:47:18.350Z,0
2018-07-31T01:48:34.231Z,0
2018-07-31T01:49:50.101Z,0
2018-07-31T01:51:06.011Z,0
2018-07-31T01:52:21.887Z,0
2018-07-31T01:53:37.758Z,0
2018-07-31T01:54:53.695Z,0
2018-07-31T01:56:09.565Z,0
2018-07-31T01:57:25.432Z,0
2018-07-31T01:58:41.341Z,0
2018-07-31T01:59:57.222Z,0
2018-07-31T02:01:13.104Z,0
2018-07-31T02:02:28.975Z,0
2018-07-31T02:03:44.866Z,0
2018-07-31T02:06:41.653Z,0
2018-07-31T02:07:57.593Z,0
2018-07-31T02:09:13.482Z,0
2018-07-31T02:10:29.378Z,0
2018-07-31T02:11:45.293Z,0
2018-07-31T02:13:01.167Z,0
2018-07-31T02:14:17.035Z,0
2018-07-31T02:15:32.906Z,0
2018-07-31T02:16:48.834Z,0
2018-07-31T02:18:04.749Z,0
2018-07-31T02:19:20.673Z,0
2018-07-31T02:20:36.568Z,0
2018-07-31T02:21:52.458Z,0
2018-07-31T02:23:08.354Z,0
2018-07-31T02:24:24.233Z,0
2018-07-31T02:25:40.171Z,0
2018-07-31T02:26:56.095Z,0
2018-07-31T02:28:12.058Z,0
2018-07-31T02:29:27.897Z,0
2018-07-31T02:30:43.887Z,0
2018-07-31T02:31:59.757Z,0
2018-07-31T02:33:15.647Z,0
2018-07-31T02:34:31.536Z,0
2018-07-31T02:35:47.465Z,0
2018-07-31T02:37:03.422Z,0
2018-07-31T02:38:19.342Z,0
2018-07-31T02:39:35.204Z,0
2018-07-31T02:40:51.086Z,0
2018-07-31T02:42:06.954Z,0
2018-07-31T02:43:23.826Z,0
2018-07-31T02:44:39.742Z,0
2018-07-31T02:45:55.663Z,0
2018-07-31T02:47:11.534Z,0
2018-07-31T02:48:27.459Z,0
2018-07-31T02:49:43.350Z,0
2018-07-31T02:50:59.249Z,0
2018-07-31T02:52:15.123Z,0
2018-07-31T02:53:31.009Z,0
2018-07-31T02:54:46.892Z,0
2018-07-31T02:56:02.806Z,0
2018-07-31T02:57:18.701Z,0
2018-07-31T02:58:34.705Z,0
2018-07-31T02:59:50.638Z,0
2018-07-31T03:01:06.649Z,0
2018-07-31T03:02:22.596Z,0
2018-07-31T03:03:38.598Z,0
2018-07-31T03:04:54.492Z,0
2018-07-31T03:06:10.369Z,0
2018-07-31T03:07:26.239Z,0
2018-07-31T03:08:42.222Z,0
2018-07-31T03:09:58.092Z,0
2018-07-31T03:11:14.013Z,0
2018-07-31T03:12:29.883Z,0
2018-07-31T03:13:45.764Z,0
2018-07-31T03:15:01.855Z,0
2018-07-31T03:16:17.917Z,0
2018-07-31T03:17:33.804Z,0
2018-07-31T03:18:49.702Z,0
2018-07-31T03:20:05.656Z,0
2018-07-31T03:21:21.646Z,0
2018-07-31T03:22:37.546Z,0
2018-07-31T03:23:53.543Z,0
2018-07-31T03:25:09.533Z,0
2018-07-31T03:26:25.499Z,0
2018-07-31T03:27:41.420Z,0
2018-07-31T03:28:57.484Z,0
2018-07-31T03:30:13.390Z,0
2018-07-31T03:31:29.280Z,0
2018-07-31T03:32:45.191Z,0
2018-07-31T03:34:01.063Z,0
2018-07-31T03:35:16.956Z,0
2018-07-31T03:36:33.007Z,0
2018-07-31T03:37:48.991Z,0
2018-07-31T03:39:05.895Z,0
2018-07-31T03:40:22.801Z,0
2018-07-31T03:41:38.728Z,0
2018-07-31T03:42:54.737Z,0
2018-07-31T03:44:10.629Z,0
2018-07-31T03:45:26.525Z,0
2018-07-31T03:46:42.559Z,0
2018-07-31T03:47:58.594Z,0
2018-07-31T03:49:14.457Z,0
2018-07-31T03:50:30.380Z,0
2018-07-31T03:51:46.306Z,0
2018-07-31T03:53:02.219Z,0
2018-07-31T03:54:18.114Z,0
2018-07-31T03:55:34.089Z,0
2018-07-31T03:56:50.027Z,0
2018-07-31T03:58:06.965Z,0
2018-07-31T03:59:22.897Z,5.625
2018-07-31T04:00:38.907Z,5.625
2018-07-31T04:01:54.807Z,5.625
2018-07-31T04:03:10.807Z,5.625
2018-07-31T04:04:26.823Z,5.625
2018-07-31T04:05:42.682Z,5.625
2018-07-31T04:06:58.618Z,5.625
2018-07-31T04:08:14.628Z,11.25
2018-07-31T04:09:30.661Z,11.25
2018-07-31T04:10:46.567Z,11.25
2018-07-31T04:12:02.467Z,11.25
2018-07-31T04:13:18.380Z,11.25
2018-07-31T04:14:34.312Z,11.25
2018-07-31T04:15:50.213Z,16.875
2018-07-31T04:17:06.241Z,16.875
2018-07-31T04:18:22.133Z,16.875
2018-07-31T04:19:38.056Z,16.875
2018-07-31T04:20:53.972Z,16.875
2018-07-31T04:22:09.859Z,22.5
2018-07-31T04:23:25.758Z,22.5
2018-07-31T04:24:41.735Z,22.5
2018-07-31T04:25:57.856Z,22.5
2018-07-31T04:27:13.860Z,28.125
2018-07-31T04:28:29.769Z,28.125
2018-07-31T04:29:45.655Z,28.125
2018-07-31T04:31:01.695Z,28.125
2018-07-31T04:32:17.652Z,33.75
2018-07-31T04:33:33.567Z,33.75
2018-07-31T04:34:49.515Z,33.75
2018-07-31T04:36:05.531Z,33.75
2018-07-31T04:37:21.370Z,33.75
2018-07-31T04:38:37.403Z,39.375
2018-07-31T04:39:53.329Z,39.375
2018-07-31T04:41:09.245Z,39.375
2018-07-31T04:42:25.169Z,39.375
2018-07-31T04:43:41.176Z,39.375
2018-07-31T04:44:57.095Z,45
2018-07-31T04:46:13.337Z,45
2018-07-31T04:47:29.215Z,45
2018-07-31T04:48:45.170Z,45
2018-07-31T04:50:01.074Z,50.625
2018-07-31T04:51:17.003Z,50.625
2018-07-31T04:52:32.984Z,50.625
2018-07-31T04:53:50.036Z,50.625
2018-07-31T04:55:06.019Z,50.625
2018-07-31T04:56:21.985Z,56.25
2018-07-31T04:57:37.986Z,56.25
2018-07-31T04:58:54.083Z,56.25
2018-07-31T05:00:10.014Z,56.25
2018-07-31T05:01:25.933Z,56.25
2018-07-31T05:02:41.968Z,61.875
2018-07-31T05:03:58.045Z,61.875
2018-07-31T05:05:14.128Z,61.875
2018-07-31T05:06:30.167Z,61.875
2018-07-31T05:07:46.077Z,61.875
2018-07-31T05:09:02.102Z,67.5
2018-07-31T05:10:18.160Z,67.5
2018-07-31T05:11:34.135Z,67.5
2018-07-31T05:12:50.093Z,67.5
2018-07-31T05:14:06.085Z,67.5
2018-07-31T05:15:22.035Z,73.125
2018-07-31T05:16:38.016Z,73.125
2018-07-31T05:17:53.922Z,73.125
2018-07-31T05:19:09.889Z,73.125
2018-07-31T05:20:25.859Z,73.125
2018-07-31T05:21:41.813Z,73.125
2018-07-31T05:22:57.832Z,78.75
2018-07-31T05:24:13.788Z,78.75
2018-07-31T05:25:29.778Z,78.75
2018-07-31T05:26:45.732Z,78.75
2018-07-31T05:29:43.191Z,84.375
2018-07-31T05:30:59.280Z,84.375
2018-07-31T05:32:15.202Z,84.375
2018-07-31T05:33:31.114Z,84.375
2018-07-31T05:34:47.057Z,84.375
2018-07-31T05:36:03.129Z,84.375
2018-07-31T05:37:19.056Z,90
2018-07-31T05:38:34.938Z,90
2018-07-31T05:39:50.913Z,90
2018-07-31T05:41:06.826Z,90
2018-07-31T05:42:22.731Z,90
2018-07-31T05:43:38.725Z,90
2018-07-31T05:44:54.652Z,95.625
2018-07-31T05:46:10.591Z,95.625
2018-07-31T05:47:26.586Z,95.625
2018-07-31T05:48:42.535Z,95.625
2018-07-31T05:49:58.475Z,95.625
2018-07-31T05:51:14.374Z,101.25
2018-07-31T05:52:30.310Z,101.25
2018-07-31T05:53:46.203Z,101.25
2018-07-31T05:55:02.090Z,101.25
2018-07-31T05:56:18.095Z,101.25
2018-07-31T05:57:34.049Z,101.25
2018-07-31T05:58:49.970Z,101.25
2018-07-31T06:00:05.998Z,106.875
2018-07-31T06:01:21.983Z,106.875
2018-07-31T06:02:37.913Z,106.875
2018-07-31T06:03:53.824Z,106.875
2018-07-31T06:05:09.764Z,106.875
2018-07-31T06:06:25.641Z,106.875
2018-07-31T06:07:41.534Z,106.875
2018-07-31T06:08:57.454Z,112.5
2018-07-31T06:10:13.392Z,112.5
2018-07-31T06:11:29.385Z,112.5
2018-07-31T06:12:45.451Z,112.5
2018-07-31T06:14:01.459Z,112.5
2018-07-31T06:15:17.393Z,112.5
2018-07-31T06:16:33.253Z,118.125
2018-07-31T06:17:49.168Z,118.125
2018-07-31T06:19:05.114Z,118.125
2018-07-31T06:20:21.058Z,118.125
2018-07-31T06:21:37.163Z,118.125
2018-07-31T06:22:53.092Z,118.125
2018-07-31T06:24:09.063Z,118.125
2018-07-31T06:25:24.993Z,123.75
2018-07-31T06:26:41.002Z,123.75
2018-07-31T06:27:57.041Z,123.75
2018-07-31T06:29:12.961Z,123.75
2018-07-31T06:30:28.874Z,123.75
2018-07-31T06:31:44.854Z,123.75
2018-07-31T06:33:00.883Z,123.75
2018-07-31T06:34:16.828Z,129.375
2018-07-31T06:35:32.740Z,129.375
2018-07-31T06:36:48.652Z,129.375
2018-07-31T06:38:04.580Z,129.375
2018-07-31T06:39:20.483Z,129.375
2018-07-31T06:40:36.440Z,129.375
2018-07-31T06:41:52.365Z,129.375
2018-07-31T06:43:08.304Z,135
2018-07-31T06:44:24.321Z,135
2018-07-31T06:45:40.258Z,135
2018-07-31T06:46:56.171Z,135
2018-07-31T06:48:12.135Z,135
2018-07-31T06:49:28.167Z,135
2018-07-31T06:50:44.068Z,135
2018-07-31T06:52:00.035Z,140.625
2018-07-31T06:53:16.074Z,140.625
2018-07-31T06:54:32.045Z,140.625
2018-07-31T06:55:47.993Z,140.625
2018-07-31T06:57:03.946Z,140.625
2018-07-31T06:58:19.941Z,140.625
2018-07-31T06:59:35.854Z,146.25
2018-07-31T07:00:51.774Z,140.625
2018-07-31T07:02:07.990Z,146.25
2018-07-31T07:03:23.938Z,140.625
2018-07-31T07:04:39.806Z,140.625
2018-07-31T07:05:55.826Z,146.25
2018-07-31T07:07:11.925Z,146.25
2018-07-31T07:08:27.894Z,146.25
2018-07-31T07:09:43.807Z,146.25
2018-07-31T07:12:40.265Z,151.875
2018-07-31T07:13:56.294Z,151.875
2018-07-31T07:15:12.204Z,157.5
2018-07-31T07:16:28.152Z,157.5
2018-07-31T07:17:44.241Z,157.5
2018-07-31T07:19:00.314Z,157.5
2018-07-31T07:20:16.279Z,163.125
2018-07-31T07:21:32.190Z,163.125
2018-07-31T07:22:48.203Z,163.125
2018-07-31T07:24:04.095Z,163.125
2018-07-31T07:25:19.987Z,163.125
2018-07-31T07:26:36.042Z,168.75
2018-07-31T07:27:52.075Z,168.75
2018-07-31T07:29:07.933Z,168.75
2018-07-31T07:30:23.930Z,168.75
2018-07-31T07:31:39.892Z,168.75
2018-07-31T07:32:56.004Z,168.75
2018-07-31T07:34:11.936Z,168.75
2018-07-31T07:35:27.884Z,168.75
2018-07-31T07:36:43.896Z,174.375
2018-07-31T07:37:59.801Z,174.375
2018-07-31T07:39:15.730Z,174.375
2018-07-31T07:40:31.641Z,174.375
2018-07-31T07:41:47.756Z,174.375
2018-07-31T07:43:03.714Z,174.375
2018-07-31T07:44:19.661Z,180
2018-07-31T07:45:35.817Z,180
2018-07-31T07:46:51.700Z,180
2018-07-31T07:48:10.472Z,180
2018-07-31T07:49:26.433Z,180
2018-07-31T07:50:42.422Z,185.625
2018-07-31T07:51:58.337Z,185.625
2018-07-31T07:53:14.247Z,185.625
2018-07-31T07:54:30.201Z,185.625
2018-07-31T07:55:46.218Z,185.625
2018-07-31T07:57:02.162Z,185.625
2018-07-31T07:58:18.203Z,185.625
2018-07-31T07:59:34.166Z,191.25
2018-07-31T08:00:50.103Z,191.25
2018-07-31T08:02:06.035Z,196.875
2018-07-31T08:03:21.966Z,191.25
2018-07-31T08:04:38.027Z,191.25
2018-07-31T08:05:54.030Z,191.25
2018-07-31T08:07:09.957Z,196.875
2018-07-31T08:08:25.931Z,196.875
2018-07-31T08:09:41.911Z,196.875
2018-07-31T08:10:57.863Z,196.875
2018-07-31T08:12:13.811Z,196.875
2018-07-31T08:13:29.817Z,196.875
2018-07-31T08:14:45.757Z,202.5
2018-07-31T08:16:02.282Z,202.5
2018-07-31T08:17:18.370Z,202.5
2018-07-31T08:18:34.567Z,202.5
2018-07-31T08:19:50.820Z,202.5
2018-07-31T08:22:47.889Z,202.5
2018-07-31T08:25:44.691Z,202.5
2018-07-31T08:28:41.698Z,208.125
2018-07-31T08:29:57.816Z,208.125
2018-07-31T08:31:13.789Z,208.125
2018-07-31T08:32:29.668Z,213.75
2018-07-31T08:33:45.649Z,213.75
2018-07-31T08:35:01.991Z,213.75
2018-07-31T08:36:18.419Z,213.75
2018-07-31T08:37:34.689Z,213.75
2018-07-31T08:38:51.024Z,213.75
2018-07-31T08:40:07.260Z,219.375
2018-07-31T08:41:23.341Z,219.375
2018-07-31T08:42:39.157Z,219.375
2018-07-31T08:43:55.094Z,219.375
2018-07-31T08:45:11.372Z,219.375
2018-07-31T08:46:27.662Z,219.375
2018-07-31T08:49:24.994Z,219.375
2018-07-31T08:50:41.202Z,225
2018-07-31T08:51:57.126Z,225
2018-07-31T08:53:13.173Z,225
2018-07-31T08:54:29.246Z,225
2018-07-31T08:55:45.274Z,225
2018-07-31T08:57:01.388Z,225
2018-07-31T08:58:17.239Z,225
2018-07-31T08:59:33.304Z,225
2018-07-31T09:00:49.309Z,230.625
2018-07-31T09:02:05.271Z,230.625
2018-07-31T09:03:21.178Z,230.625
2018-07-31T09:04:37.164Z,230.625
2018-07-31T09:05:53.144Z,230.625
2018-07-31T09:07:09.060Z,230.625
2018-07-31T09:10:05.796Z,230.625
2018-07-31T09:11:22.450Z,236.25
2018-07-31T09:12:38.481Z,236.25
2018-07-31T09:13:54.965Z,236.25
2018-07-31T09:15:11.377Z,236.25
2018-07-31T09:16:27.634Z,236.25
2018-07-31T09:17:43.985Z,236.25
2018-07-31T09:19:00.154Z,236.25
2018-07-31T09:20:16.292Z,236.25
2018-07-31T09:21:32.549Z,241.875
2018-07-31T09:24:29.308Z,241.875
2018-07-31T09:25:45.263Z,241.875
2018-07-31T09:27:01.701Z,241.875
2018-07-31T09:28:18.287Z,241.875
2018-07-31T09:29:34.667Z,241.875
2018-07-31T09:30:51.128Z,241.875
2018-07-31T09:32:07.275Z,247.5
2018-07-31T09:33:23.339Z,241.875
2018-07-31T09:34:39.345Z,247.5
2018-07-31T09:35:55.362Z,247.5
2018-07-31T09:37:11.399Z,247.5
2018-07-31T09:38:27.374Z,247.5
2018-07-31T09:39:43.402Z,247.5
2018-07-31T09:40:59.416Z,247.5
2018-07-31T09:42:15.480Z,247.5
2018-07-31T09:43:31.420Z,253.125
2018-07-31T09:44:47.332Z,253.125
2018-07-31T09:46:03.774Z,253.125
2018-07-31T09:47:20.062Z,253.125
2018-07-31T09:48:36.062Z,253.125
2018-07-31T09:49:52.030Z,253.125
2018-07-31T09:51:08.101Z,253.125
2018-07-31T09:54:04.970Z,253.125
2018-07-31T09:55:20.965Z,258.75
2018-07-31T09:56:36.960Z,258.75
2018-07-31T09:57:53.050Z,258.75
2018-07-31T09:59:09.085Z,258.75
2018-07-31T10:00:25.038Z,258.75
2018-07-31T10:01:40.954Z,258.75
2018-07-31T10:02:56.987Z,258.75
2018-07-31T10:04:13.082Z,258.75
2018-07-31T10:05:29.125Z,258.75
2018-07-31T10:06:45.075Z,264.375
2018-07-31T10:08:01.024Z,264.375
2018-07-31T10:09:17.135Z,264.375
2018-07-31T10:10:33.089Z,264.375
2018-07-31T10:11:49.035Z,264.375
2018-07-31T10:13:04.966Z,264.375
2018-07-31T10:14:20.961Z,264.375
2018-07-31T10:15:36.963Z,264.375
2018-07-31T10:16:53.040Z,264.375
2018-07-31T10:18:09.577Z,264.375
2018-07-31T10:19:26.341Z,264.375
2018-07-31T10:22:23.019Z,264.375
2018-07-31T10:23:39.062Z,270
2018-07-31T10:24:55.049Z,270
2018-07-31T10:26:11.012Z,270
2018-07-31T10:27:27.039Z,270
2018-07-31T10:28:43.082Z,270
2018-07-31T10:29:59.034Z,270
2018-07-31T10:31:14.989Z,270
2018-07-31T10:32:30.941Z,270
2018-07-31T10:33:46.981Z,270
2018-07-31T10:35:03.014Z,270
2018-07-31T10:36:19.009Z,270
2018-07-31T10:37:35.008Z,270
2018-07-31T10:38:50.911Z,270
2018-07-31T10:40:06.919Z,270
2018-07-31T10:41:22.930Z,270
2018-07-31T10:42:38.955Z,270
2018-07-31T10:43:54.983Z,270
2018-07-31T10:45:10.962Z,270
2018-07-31T10:46:26.905Z,270
2018-07-31T10:47:42.933Z,275.625
2018-07-31T10:48:58.931Z,275.625
2018-07-31T10:50:14.920Z,275.625
2018-07-31T10:51:30.921Z,275.625
2018-07-31T10:52:46.819Z,275.625
2018-07-31T10:54:02.837Z,275.625
2018-07-31T10:55:18.813Z,275.625
2018-07-31T10:56:34.746Z,275.625
2018-07-31T10:57:50.835Z,275.625
2018-07-31T10:59:06.940Z,275.625
2018-07-31T11:00:22.987Z,275.625
2018-07-31T11:01:38.900Z,275.625
2018-07-31T11:02:56.082Z,275.625
2018-07-31T11:04:12.001Z,275.625
2018-07-31T11:05:28.270Z,275.625
2018-07-31T11:06:44.236Z,275.625
2018-07-31T11:08:00.155Z,275.625
2018-07-31T11:09:16.137Z,275.625
2018-07-31T11:10:32.148Z,275.625
2018-07-31T11:11:48.067Z,275.625
2018-07-31T11:13:04.067Z,275.625
2018-07-31T11:14:20.028Z,275.625
2018-07-31T11:15:36.103Z,275.625
2018-07-31T11:16:52.070Z,275.625
2018-07-31T11:18:07.997Z,275.625
2018-07-31T11:19:23.937Z,275.625
2018-07-31T11:20:40.039Z,275.625
2018-07-31T11:21:56.217Z,275.625
2018-07-31T11:24:51.899Z,275.625
2018-07-31T11:26:07.860Z,275.625
2018-07-31T11:27:23.843Z,275.625
2018-07-31T11:28:39.819Z,275.625
2018-07-31T11:29:55.772Z,275.625
2018-07-31T11:31:11.707Z,275.625
2018-07-31T11:32:27.739Z,275.625
2018-07-31T11:33:43.826Z,275.625
2018-07-31T11:34:59.910Z,275.625
2018-07-31T11:36:15.838Z,275.625
2018-07-31T11:37:31.818Z,275.625
2018-07-31T11:38:47.880Z,275.625
2018-07-31T11:40:03.906Z,275.625
2018-07-31T11:41:19.839Z,275.625
2018-07-31T11:42:35.791Z,270
2018-07-31T11:43:51.964Z,275.625
2018-07-31T11:45:07.940Z,281.25
2018-07-31T11:46:23.842Z,270
2018-07-31T11:47:39.790Z,270
2018-07-31T11:48:55.800Z,270
2018-07-31T11:50:11.887Z,270
2018-07-31T11:51:27.725Z,270
2018-07-31T11:52:43.721Z,270
2018-07-31T11:53:59.700Z,270
2018-07-31T11:55:15.759Z,270
2018-07-31T11:56:31.695Z,270
2018-07-31T11:57:47.680Z,270
2018-07-31T11:59:03.698Z,270
2018-07-31T12:00:19.730Z,270
2018-07-31T12:01:35.663Z,270
2018-07-31T12:02:51.742Z,270
2018-07-31T12:04:07.756Z,270
2018-07-31T12:05:23.616Z,270
2018-07-31T12:06:39.541Z,270
2018-07-31T12:07:55.580Z,270
2018-07-31T12:09:11.555Z,270
2018-07-31T12:10:27.570Z,270
2018-07-31T12:11:43.482Z,270
2018-07-31T12:12:59.444Z,270
2018-07-31T12:14:15.404Z,270
2018-07-31T12:15:31.347Z,270
2018-07-31T12:16:47.377Z,270
2018-07-31T12:18:03.349Z,270
2018-07-31T12:19:19.744Z,270
2018-07-31T12:20:36.419Z,270
2018-07-31T12:21:53.173Z,270
2018-07-31T12:29:28.076Z,264.375
2018-07-31T12:30:44.565Z,264.375
2018-07-31T12:32:00.912Z,264.375
2018-07-31T12:33:17.250Z,264.375
2018-07-31T12:34:34.113Z,264.375
2018-07-31T12:35:50.216Z,264.375
2018-07-31T12:38:46.769Z,264.375
2018-07-31T12:40:02.882Z,264.375
2018-07-31T12:41:18.849Z,264.375
2018-07-31T12:42:34.787Z,264.375
2018-07-31T12:43:50.698Z,264.375
2018-07-31T12:45:06.791Z,264.375
2018-07-31T12:46:22.906Z,264.375
2018-07-31T12:47:38.832Z,264.375
2018-07-31T12:48:54.915Z,264.375
2018-07-31T12:50:11.039Z,264.375
2018-07-31T12:51:27.055Z,264.375
2018-07-31T12:52:43.021Z,264.375
2018-07-31T12:53:58.992Z,264.375
2018-07-31T12:55:15.028Z,264.375
2018-07-31T12:56:30.963Z,264.375
2018-07-31T12:57:47.073Z,264.375
2018-07-31T12:59:03.013Z,264.375
2018-07-31T13:00:18.975Z,264.375
2018-07-31T13:01:34.999Z,258.75
2018-07-31T13:02:51.065Z,258.75
2018-07-31T13:04:07.172Z,258.75
2018-07-31T13:05:23.118Z,258.75
2018-07-31T13:08:19.761Z,258.75
2018-07-31T13:09:35.778Z,258.75
2018-07-31T13:10:51.723Z,258.75
2018-07-31T13:12:07.677Z,258.75
2018-07-31T13:13:23.627Z,258.75
2018-07-31T13:14:39.711Z,258.75
2018-07-31T13:15:55.830Z,258.75
2018-07-31T13:17:11.781Z,264.375
2018-07-31T13:18:27.708Z,253.125
2018-07-31T13:19:43.622Z,253.125
2018-07-31T13:20:59.549Z,253.125
2018-07-31T13:22:15.533Z,253.125
2018-07-31T13:23:31.936Z,253.125
2018-07-31T13:28:09.691Z,253.125
2018-07-31T13:29:25.689Z,253.125
2018-07-31T13:30:41.748Z,253.125
2018-07-31T13:31:57.797Z,253.125
2018-07-31T13:33:13.731Z,253.125
2018-07-31T13:34:29.712Z,253.125
2018-07-31T13:35:45.631Z,253.125
2018-07-31T13:37:01.630Z,253.125
2018-07-31T13:38:17.547Z,253.125
2018-07-31T13:39:33.512Z,253.125
2018-07-31T13:40:49.531Z,253.125
2018-07-31T13:42:05.622Z,253.125
2018-07-31T13:43:21.582Z,247.5
2018-07-31T13:44:37.577Z,247.5
2018-07-31T13:45:53.525Z,247.5
2018-07-31T13:47:09.578Z,247.5
2018-07-31T13:48:25.728Z,247.5
2018-07-31T13:49:41.726Z,247.5
2018-07-31T13:50:57.759Z,247.5
2018-07-31T13:52:13.773Z,247.5
2018-07-31T13:53:29.820Z,247.5
2018-07-31T13:54:45.784Z,247.5
2018-07-31T13:56:01.701Z,247.5
2018-07-31T13:57:17.640Z,247.5
2018-07-31T13:58:33.712Z,247.5
2018-07-31T13:59:49.815Z,247.5
2018-07-31T14:01:05.705Z,247.5
2018-07-31T14:02:21.652Z,247.5
2018-07-31T14:03:37.571Z,247.5
2018-07-31T14:04:53.545Z,247.5
2018-07-31T14:06:09.490Z,241.875
2018-07-31T14:07:25.650Z,241.875
2018-07-31T14:08:41.657Z,241.875
2018-07-31T14:09:57.616Z,241.875
2018-07-31T14:11:13.587Z,241.875
2018-07-31T14:12:29.551Z,241.875
2018-07-31T14:13:45.486Z,241.875
2018-07-31T14:15:01.378Z,241.875
2018-07-31T14:16:17.375Z,241.875
2018-07-31T14:17:33.456Z,241.875
2018-07-31T14:18:49.411Z,241.875
2018-07-31T14:20:05.381Z,241.875
2018-07-31T14:21:21.501Z,241.875
2018-07-31T14:22:37.435Z,241.875
2018-07-31T14:23:53.416Z,241.875
2018-07-31T14:25:09.320Z,241.875
2018-07-31T14:26:25.335Z,236.25
2018-07-31T14:27:41.316Z,236.25
2018-07-31T14:28:57.301Z,236.25
2018-07-31T14:30:13.352Z,236.25
2018-07-31T14:31:30.323Z,236.25
2018-07-31T14:32:46.343Z,236.25
2018-07-31T14:34:02.314Z,236.25
2018-07-31T14:35:18.314Z,236.25
2018-07-31T14:36:34.351Z,236.25
2018-07-31T14:37:50.269Z,236.25
2018-07-31T14:39:06.308Z,236.25
2018-07-31T14:40:22.380Z,208.125
2018-07-31T14:41:38.350Z,208.125
2018-07-31T14:42:54.480Z,185.625
2018-07-31T14:44:10.433Z,286.875
2018-07-31T14:45:26.400Z,286.875
2018-07-31T14:46:42.378Z,286.875
2018-07-31T14:47:58.292Z,286.875
2018-07-31T14:49:14.356Z,286.875
2018-07-31T14:50:30.491Z,281.25
2018-07-31T14:51:46.461Z,281.25
2018-07-31T14:53:02.561Z,281.25
2018-07-31T14:54:18.661Z,281.25
2018-07-31T14:55:34.788Z,281.25
2018-07-31T14:56:51.903Z,281.25
2018-07-31T14:58:08.074Z,281.25
2018-07-31T14:59:23.978Z,281.25
2018-07-31T15:00:40.027Z,281.25
2018-07-31T15:01:56.184Z,275.625
2018-07-31T15:03:12.195Z,275.625
2018-07-31T15:04:28.836Z,275.625
2018-07-31T15:05:44.829Z,275.625
2018-07-31T15:07:00.821Z,275.625
2018-07-31T15:08:16.763Z,275.625
2018-07-31T15:09:32.711Z,275.625
2018-07-31T15:10:48.719Z,281.25
2018-07-31T15:12:04.619Z,270
2018-07-31T15:13:20.570Z,270
2018-07-31T15:14:36.666Z,270
2018-07-31T15:17:33.389Z,270
2018-07-31T15:18:49.659Z,275.625
2018-07-31T15:20:06.379Z,264.375
2018-07-31T15:21:22.569Z,264.375
2018-07-31T15:22:38.855Z,264.375
2018-07-31T15:23:54.156Z,258.75
2018-07-31T15:26:51.174Z,258.75
2018-07-31T15:28:07.280Z,253.125
2018-07-31T15:29:23.893Z,253.125
2018-07-31T15:30:40.445Z,253.125
2018-07-31T15:31:56.759Z,253.125
2018-07-31T15:33:13.141Z,247.5
2018-07-31T15:34:29.138Z,247.5
2018-07-31T15:35:45.149Z,247.5
2018-07-31T15:37:01.238Z,247.5
2018-07-31T15:38:17.261Z,247.5
2018-07-31T15:39:33.264Z,247.5
2018-07-31T15:40:49.285Z,241.875
2018-07-31T15:42:05.212Z,241.875
2018-07-31T15:43:21.163Z,241.875
2018-07-31T15:44:37.105Z,236.25
2018-07-31T15:45:53.099Z,236.25
2018-07-31T15:47:09.263Z,236.25
2018-07-31T15:48:25.448Z,236.25
2018-07-31T15:49:41.951Z,236.25
2018-07-31T15:50:58.143Z,236.25
2018-07-31T15:53:55.179Z,236.25
2018-07-31T15:55:11.200Z,230.625
2018-07-31T15:56:27.218Z,230.625
2018-07-31T15:57:43.159Z,225
2018-07-31T15:58:59.127Z,225
2018-07-31T16:01:55.970Z,225
2018-07-31T16:03:12.193Z,225
2018-07-31T16:04:28.382Z,219.375
2018-07-31T16:05:44.559Z,219.375
2018-07-31T16:07:00.575Z,219.375
2018-07-31T16:08:16.593Z,213.75
2018-07-31T16:09:32.509Z,213.75
2018-07-31T16:12:29.288Z,213.75
2018-07-31T16:13:45.286Z,208.125
2018-07-31T16:15:02.424Z,208.125
2018-07-31T16:16:18.495Z,208.125
2018-07-31T16:19:14.941Z,202.5
2018-07-31T16:20:31.041Z,202.5
2018-07-31T16:21:47.221Z,202.5
2018-07-31T16:23:03.503Z,196.875
2018-07-31T16:24:19.410Z,196.875
2018-07-31T16:25:35.444Z,196.875
2018-07-31T16:26:51.457Z,191.25
2018-07-31T16:28:10.472Z,191.25
2018-07-31T16:29:26.529Z,191.25
2018-07-31T16:30:42.640Z,191.25
2018-07-31T16:31:58.741Z,185.625
2018-07-31T16:33:14.816Z,185.625
2018-07-31T16:34:30.855Z,185.625
2018-07-31T16:35:46.850Z,180
2018-07-31T16:37:02.912Z,180
2018-07-31T16:38:19.014Z,180
2018-07-31T16:39:34.993Z,33.75
2018-07-31T16:40:50.950Z,33.75
2018-07-31T16:41:30.696Z,28.125
2018-07-31T16:42:46.720Z,56.25
2018-07-31T16:44:02.797Z,56.25
2018-07-31T16:45:18.814Z,61.875
2018-07-31T16:46:34.734Z,56.25
2018-07-31T16:47:50.880Z,56.25
2018-07-31T16:49:06.842Z,56.25
2018-07-31T16:50:22.866Z,50.625
2018-07-31T16:51:38.850Z,50.625
2018-07-31T16:52:55.752Z,50.625
2018-07-31T16:54:11.732Z,50.625
2018-07-31T16:55:27.708Z,50.625
2018-07-31T16:56:43.662Z,50.625
2018-07-31T16:57:59.647Z,50.625
2018-07-31T16:59:15.815Z,50.625
2018-07-31T17:00:31.842Z,50.625
2018-07-31T17:01:47.799Z,50.625
2018-07-31T17:03:03.905Z,50.625
2018-07-31T17:04:19.902Z,50.625
2018-07-31T17:05:35.948Z,50.625
2018-07-31T17:06:51.940Z,50.625
2018-07-31T17:08:07.928Z,50.625
2018-07-31T17:09:23.920Z,50.625
2018-07-31T17:10:39.956Z,50.625
2018-07-31T17:11:55.894Z,50.625
2018-07-31T17:13:11.969Z,50.625
2018-07-31T17:14:27.945Z,45
2018-07-31T17:15:44.063Z,45
2018-07-31T17:17:00.090Z,45
2018-07-31T17:18:16.039Z,45